Time;durP1;ratioP1;P1;durP2;ratioP2;P2;SDS_P1;SDS_P2;PMS_P1;PMS_P2;Temp;Humidity;BMP_temperature;BMP_pressure;BME280_temperature;BME280_humidity;BME280_pressure;Samples;Min_cycle;Max_cycle;Signal;HPM_P1;HPM_P2
2022/11/19 00:06:06;;;;;;;23.90;9.68;;;;;;;;;;8305782;28;20092;-91
2022/11/19 00:10:27;;;;;;;22.40;10.20;;;;;;;;;;8319099;28;20102;-91
2022/11/19 00:14:33;;;;;;;16.98;8.90;;;;;;;;;;8322177;28;20132;-89
2022/11/19 00:18:42;;;;;;;23.25;9.13;;;;;;;;;;8325206;28;20045;-90
2022/11/19 00:22:46;;;;;;;21.63;10.65;;;;;;;;;;8320603;28;20061;-90
2022/11/19 00:26:50;;;;;;;20.30;9.80;;;;;;;;;;8298528;28;20037;-91
2022/11/19 00:30:53;;;;;;;17.65;9.30;;;;;;;;;;8314291;28;20373;-91
2022/11/19 00:34:57;;;;;;;21.88;9.95;;;;;;;;;;8309256;28;20050;-90
2022/11/19 00:39:01;;;;;;;26.08;11.95;;;;;;;;;;8324915;28;20099;-93
2022/11/19 00:47:26;;;;;;;24.25;10.50;;;;;;;;;;8319596;28;20121;-91
2022/11/19 00:51:41;;;;;;;;;;;;;;;;;;;;;
2022/11/19 01:01:40;;;;;;;31.33;12.32;;;;;;;;;;8248349;28;20443;-90
2022/11/19 01:05:47;;;;;;;28.63;13.63;;;;;;;;;;8254313;28;20050;-91
2022/11/19 01:09:50;;;;;;;23.52;12.88;;;;;;;;;;8273534;28;20050;-90
2022/11/19 01:14:12;;;;;;;27.98;13.35;;;;;;;;;;8273361;28;20045;-89
2022/11/19 01:18:28;;;;;;;30.23;13.20;;;;;;;;;;8272811;28;20406;-89
2022/11/19 01:22:41;;;;;;;45.90;16.13;;;;;;;;;;8270566;28;20053;-90
2022/11/19 01:26:46;;;;;;;31.42;14.00;;;;;;;;;;8272268;28;20134;-90
2022/11/19 01:30:51;;;;;;;32.08;13.43;;;;;;;;;;8268141;28;20123;-90
2022/11/19 01:34:56;;;;;;;27.65;12.57;;;;;;;;;;8268752;28;20050;-89
2022/11/19 01:38:59;;;;;;;24.85;9.68;;;;;;;;;;8272370;28;20054;-89
2022/11/19 01:43:36;;;;;;;35.38;15.35;;;;;;;;;;8280312;28;20093;-89
2022/11/19 01:52:25;;;;;;;36.13;14.45;;;;;;;;;;8294619;23;20058;-90
2022/11/19 01:56:30;;;;;;;33.53;14.05;;;;;;;;;;8282965;28;20053;-90
2022/11/19 02:00:35;;;;;;;30.38;12.48;;;;;;;;;;8271650;28;20050;-90
2022/11/19 02:04:43;;;;;;;33.17;12.05;;;;;;;;;;8254770;28;20134;-90
2022/11/19 02:08:50;;;;;;;30.13;14.15;;;;;;;;;;8239565;28;20050;-89
2022/11/19 02:13:06;;;;;;;29.67;13.88;;;;;;;;;;8239867;28;20447;-89
2022/11/19 02:17:24;;;;;;;68.28;31.42;;;;;;;;;;8247224;28;20073;-90
2022/11/19 02:21:34;;;;;;;44.45;20.02;;;;;;;;;;8269457;28;20046;-90
2022/11/19 02:25:57;;;;;;;38.90;17.20;;;;;;;;;;8260274;28;20042;-89
2022/11/19 02:30:15;;;;;;;33.33;16.02;;;;;;;;;;8270501;28;20104;-89
2022/11/19 02:34:29;;;;;;;34.05;15.95;;;;;;;;;;8270545;28;20046;-89
2022/11/19 02:38:41;;;;;;;30.33;13.50;;;;;;;;;;8241158;28;20043;-89
2022/11/19 02:42:54;;;;;;;30.13;13.57;;;;;;;;;;8273113;28;20816;-89
2022/11/19 02:47:01;;;;;;;27.20;11.02;;;;;;;;;;8271318;28;20490;-89
2022/11/19 02:51:08;;;;;;;22.75;11.93;;;;;;;;;;8270697;28;20058;-90
2022/11/19 02:55:13;;;;;;;27.75;12.88;;;;;;;;;;8270349;28;20061;-89
2022/11/19 03:08:06;;;;;;;16.90;7.75;;;;;;;;;;8256419;28;20625;-90
2022/11/19 03:12:19;;;;;;;15.93;7.65;;;;;;;;;;8255929;28;20486;-90
2022/11/19 03:16:41;;;;;;;15.02;8.38;;;;;;;;;;8269722;28;20039;-90
2022/11/19 03:20:53;;;;;;;16.55;7.55;;;;;;;;;;8246136;28;20050;-90
2022/11/19 03:25:00;;;;;;;11.80;6.67;;;;;;;;;;8247120;28;20467;-91
2022/11/19 03:29:07;;;;;;;12.27;6.40;;;;;;;;;;8270451;28;20047;-90
2022/11/19 03:33:14;;;;;;;13.75;6.28;;;;;;;;;;8256327;28;20069;-89
2022/11/19 03:37:21;;;;;;;12.45;6.45;;;;;;;;;;8270286;28;20053;-89
2022/11/19 03:41:25;;;;;;;9.15;6.07;;;;;;;;;;8276538;28;20486;-90
2022/11/19 03:45:32;;;;;;;11.95;6.65;;;;;;;;;;8262454;28;20065;-90
2022/11/19 03:49:41;;;;;;;10.20;5.55;;;;;;;;;;8275457;28;20055;-90
2022/11/19 03:53:46;;;;;;;12.02;5.93;;;;;;;;;;8232683;28;20043;-90
2022/11/19 03:57:50;;;;;;;12.93;6.75;;;;;;;;;;8246451;28;20720;-89
2022/11/19 04:01:56;;;;;;;11.75;6.00;;;;;;;;;;8275308;28;20108;-90
2022/11/19 04:05:59;;;;;;;12.77;7.10;;;;;;;;;;8246025;28;20073;-90
2022/11/19 04:10:06;;;;;;;14.93;7.40;;;;;;;;;;8242095;28;20050;-89
2022/11/19 04:14:08;;;;;;;12.68;7.35;;;;;;;;;;8242121;28;20050;-91
2022/11/19 04:18:11;;;;;;;14.27;7.15;;;;;;;;;;8254755;28;20467;-89
2022/11/19 04:22:14;;;;;;;17.92;7.45;;;;;;;;;;8248755;28;20445;-90
2022/11/19 04:26:18;;;;;;;20.92;9.90;;;;;;;;;;8258289;28;20053;-90
2022/11/19 04:30:20;;;;;;;15.00;9.45;;;;;;;;;;8252090;28;20058;-89
2022/11/19 04:34:23;;;;;;;16.70;7.93;;;;;;;;;;8252355;28;20054;-90
2022/11/19 04:38:25;;;;;;;15.75;8.45;;;;;;;;;;8241216;28;20124;-89
2022/11/19 04:42:30;;;;;;;16.50;8.05;;;;;;;;;;8270924;28;20066;-89
2022/11/19 04:46:32;;;;;;;15.45;8.45;;;;;;;;;;8248356;28;20047;-89
2022/11/19 04:50:35;;;;;;;16.55;7.88;;;;;;;;;;8251698;28;20065;-89
2022/11/19 04:54:38;;;;;;;18.38;9.40;;;;;;;;;;8256593;28;20050;-89
2022/11/19 04:58:43;;;;;;;13.23;8.05;;;;;;;;;;8259489;28;20061;-90
2022/11/19 05:02:46;;;;;;;18.30;9.20;;;;;;;;;;8240663;28;20067;-90
2022/11/19 05:06:49;;;;;;;16.60;7.07;;;;;;;;;;8269881;28;20066;-88
2022/11/19 05:11:00;;;;;;;16.05;7.63;;;;;;;;;;8257634;28;20121;-88
2022/11/19 05:15:12;;;;;;;17.92;7.88;;;;;;;;;;8255568;28;20053;-89
2022/11/19 05:19:14;;;;;;;13.67;6.63;;;;;;;;;;8245404;28;20439;-90
2022/11/19 05:23:17;;;;;;;14.43;7.03;;;;;;;;;;8255610;28;20498;-92
2022/11/19 05:27:19;;;;;;;14.13;7.65;;;;;;;;;;8249108;28;20061;-91
2022/11/19 05:31:45;;;;;;;15.88;7.22;;;;;;;;;;8252886;28;20050;-96
2022/11/19 05:35:51;;;;;;;12.93;7.30;;;;;;;;;;8262828;28;20065;-89
2022/11/19 05:39:54;;;;;;;18.98;9.05;;;;;;;;;;8261745;28;20051;-90
2022/11/19 05:43:57;;;;;;;19.02;8.35;;;;;;;;;;8262819;28;20438;-96
2022/11/19 05:48:02;;;;;;;19.10;8.50;;;;;;;;;;8269177;28;20122;-90
2022/11/19 05:52:05;;;;;;;20.08;7.53;;;;;;;;;;8254105;28;20050;-91
2022/11/19 05:56:08;;;;;;;13.60;6.78;;;;;;;;;;8272865;28;20050;-95
2022/11/19 06:00:12;;;;;;;19.88;9.90;;;;;;;;;;8250479;28;20058;-90
2022/11/19 06:04:22;;;;;;;17.23;8.88;;;;;;;;;;8239621;28;20082;-90
2022/11/19 06:08:24;;;;;;;16.45;7.47;;;;;;;;;;8271233;28;20053;-90
2022/11/19 06:12:33;;;;;;;15.88;7.60;;;;;;;;;;8281977;28;20501;-92
2022/11/19 06:16:37;;;;;;;23.13;9.73;;;;;;;;;;8267420;28;20053;-92
2022/11/19 06:20:42;;;;;;;24.27;12.13;;;;;;;;;;8279140;28;20144;-93
2022/11/19 06:24:47;;;;;;;21.60;11.35;;;;;;;;;;8279399;28;20065;-89
2022/11/19 06:28:50;;;;;;;56.55;23.13;;;;;;;;;;8259131;28;20050;-89
2022/11/19 06:32:53;;;;;;;38.60;19.25;;;;;;;;;;8254029;28;20050;-92
2022/11/19 06:36:58;;;;;;;41.72;20.38;;;;;;;;;;8261367;28;20046;-91
2022/11/19 06:41:09;;;;;;;45.47;20.38;;;;;;;;;;8270319;28;20054;-88
2022/11/19 06:45:13;;;;;;;38.50;17.10;;;;;;;;;;8273001;28;20042;-93
2022/11/19 06:49:16;;;;;;;32.78;14.43;;;;;;;;;;8274712;28;20058;-91
2022/11/19 06:53:23;;;;;;;20.40;10.82;;;;;;;;;;8274169;28;20042;-89
2022/11/19 06:57:27;;;;;;;27.00;14.43;;;;;;;;;;8278642;28;20050;-92
2022/11/19 07:01:32;;;;;;;42.92;17.40;;;;;;;;;;8264884;28;20478;-89
2022/11/19 07:05:34;;;;;;;39.35;14.60;;;;;;;;;;8248804;28;20058;-90
2022/11/19 07:09:53;;;;;;;28.48;13.50;;;;;;;;;;8281238;28;20053;-89
2022/11/19 07:13:58;;;;;;;27.98;13.18;;;;;;;;;;8282054;28;20054;-91
2022/11/19 07:18:02;;;;;;;23.02;10.95;;;;;;;;;;8286114;28;20050;-91
2022/11/19 07:22:05;;;;;;;35.13;15.90;;;;;;;;;;8282020;28;20038;-90
2022/11/19 07:26:18;;;;;;;32.13;13.05;;;;;;;;;;8313590;28;20050;-92
2022/11/19 07:30:23;;;;;;;32.25;15.82;;;;;;;;;;8425235;23;20058;-89
2022/11/19 07:34:48;;;;;;;39.65;16.38;;;;;;;;;;8301638;28;20034;-89
2022/11/19 07:38:51;;;;;;;47.47;18.65;;;;;;;;;;8313661;28;20065;-91
2022/11/19 07:43:11;;;;;;;37.90;14.77;;;;;;;;;;8311547;28;20081;-90
2022/11/19 07:47:18;;;;;;;64.32;21.83;;;;;;;;;;8301591;28;20074;-90
2022/11/19 07:56:06;;;;;;;34.53;15.30;;;;;;;;;;8281512;28;20128;-90
2022/11/19 08:00:16;;;;;;;22.13;10.73;;;;;;;;;;8245127;28;20049;-89
2022/11/19 08:04:25;;;;;;;30.27;14.38;;;;;;;;;;8278963;28;20077;-90
2022/11/19 08:08:30;;;;;;;24.40;10.60;;;;;;;;;;8278944;28;20053;-89
2022/11/19 08:21:51;;;;;;;26.25;11.88;;;;;;;;;;8257248;28;20096;-89
2022/11/19 08:35:04;;;;;;;28.77;14.40;;;;;;;;;;8272661;28;20057;-90
2022/11/19 08:39:12;;;;;;;29.48;16.13;;;;;;;;;;8252682;28;20498;-90
2022/11/19 08:43:16;;;;;;;31.88;14.43;;;;;;;;;;8237853;28;20364;-89
2022/11/19 08:47:37;;;;;;;29.50;13.35;;;;;;;;;;8257859;28;20054;-89
2022/11/19 08:51:43;;;;;;;24.70;10.85;;;;;;;;;;8273300;28;20050;-89
2022/11/19 08:56:04;;;;;;;15.05;8.27;;;;;;;;;;8276249;28;20046;-90
2022/11/19 09:00:24;;;;;;;18.30;8.90;;;;;;;;;;8269222;28;20128;-84
2022/11/19 09:04:26;;;;;;;18.80;10.15;;;;;;;;;;8268868;28;20173;-84
2022/11/19 09:08:31;;;;;;;16.00;8.38;;;;;;;;;;8270070;28;20046;-87
2022/11/19 09:12:33;;;;;;;11.40;7.13;;;;;;;;;;8267821;28;20050;-86
2022/11/19 09:16:36;;;;;;;14.82;8.57;;;;;;;;;;8267725;28;20050;-86
2022/11/19 09:20:44;;;;;;;10.77;6.00;;;;;;;;;;8258825;28;20058;-89
2022/11/19 09:24:48;;;;;;;11.40;6.85;;;;;;;;;;8270332;28;20502;-90
2022/11/19 09:28:55;;;;;;;14.27;9.23;;;;;;;;;;8263723;28;20054;-89
2022/11/19 09:33:02;;;;;;;13.00;8.40;;;;;;;;;;8247777;28;20415;-89
2022/11/19 09:37:05;;;;;;;13.68;7.18;;;;;;;;;;8225797;28;20053;-88
2022/11/19 09:41:35;;;;;;;14.48;8.77;;;;;;;;;;8266900;28;20057;-88
2022/11/19 09:45:50;;;;;;;16.50;8.70;;;;;;;;;;8272509;28;20043;-87
2022/11/19 09:50:03;;;;;;;15.00;7.32;;;;;;;;;;8276881;28;20050;-87
2022/11/19 09:54:09;;;;;;;13.70;7.80;;;;;;;;;;8264230;28;20102;-90
2022/11/19 09:58:26;;;;;;;6.57;3.72;;;;;;;;;;8285545;28;20054;-91
2022/11/19 10:02:30;;;;;;;18.00;8.23;;;;;;;;;;8273451;28;20109;-89
2022/11/19 10:06:46;;;;;;;16.15;8.45;;;;;;;;;;8282288;28;20062;-89
2022/11/19 10:10:59;;;;;;;18.33;9.43;;;;;;;;;;8281070;28;20102;-93
2022/11/19 10:15:23;;;;;;;24.20;10.02;;;;;;;;;;8270736;28;20047;-92
2022/11/19 10:19:45;;;;;;;12.02;5.53;;;;;;;;;;8270190;28;20109;-88
2022/11/19 10:23:53;;;;;;;15.80;7.78;;;;;;;;;;8285323;28;20074;-90
2022/11/19 10:28:02;;;;;;;20.52;10.55;;;;;;;;;;8258108;28;20541;-88
2022/11/19 10:32:28;;;;;;;15.20;8.52;;;;;;;;;;8253507;28;20134;-90
2022/11/19 10:36:45;;;;;;;13.00;6.75;;;;;;;;;;8272338;28;20050;-89
2022/11/19 10:40:54;;;;;;;13.38;7.53;;;;;;;;;;8270308;28;20053;-88
2022/11/19 10:45:00;;;;;;;11.13;6.75;;;;;;;;;;8238065;28;20046;-87
2022/11/19 10:49:10;;;;;;;21.33;10.10;;;;;;;;;;8269869;28;20121;-88
2022/11/19 10:53:17;;;;;;;15.27;8.05;;;;;;;;;;8272254;28;20050;-91
2022/11/19 10:57:22;;;;;;;19.17;8.10;;;;;;;;;;8275091;28;20124;-89
2022/11/19 11:01:31;;;;;;;19.23;8.80;;;;;;;;;;8254517;28;20047;-89
2022/11/19 11:05:55;;;;;;;14.60;8.15;;;;;;;;;;8268507;28;20042;-89
2022/11/19 11:10:01;;;;;;;12.65;7.15;;;;;;;;;;8268995;28;20111;-88
2022/11/19 11:18:32;;;;;;;12.07;6.35;;;;;;;;;;8270432;28;20133;-90
2022/11/19 11:22:43;;;;;;;13.88;7.40;;;;;;;;;;8271713;28;20106;-89
2022/11/19 11:26:47;;;;;;;6.50;4.15;;;;;;;;;;8276030;28;20176;-88
2022/11/19 11:30:55;;;;;;;16.45;8.52;;;;;;;;;;8272367;28;20074;-88
2022/11/19 11:35:00;;;;;;;15.18;8.07;;;;;;;;;;8267813;28;20195;-89
2022/11/19 11:39:06;;;;;;;9.43;4.90;;;;;;;;;;8262074;28;20080;-88
2022/11/19 11:43:16;;;;;;;16.65;7.53;;;;;;;;;;8270812;28;20507;-89
2022/11/19 11:47:29;;;;;;;14.27;7.72;;;;;;;;;;8268563;28;20042;-89
2022/11/19 11:51:38;;;;;;;15.77;7.60;;;;;;;;;;8276830;28;20055;-89
2022/11/19 11:55:58;;;;;;;7.05;3.85;;;;;;;;;;8257002;28;20043;-89
2022/11/19 12:00:05;;;;;;;18.17;9.57;;;;;;;;;;8275323;28;20486;-88
2022/11/19 12:04:20;;;;;;;19.33;9.35;;;;;;;;;;8278471;28;20078;-89
2022/11/19 12:08:44;;;;;;;23.38;11.38;;;;;;;;;;8268656;28;20042;-90
2022/11/19 12:13:10;;;;;;;29.88;12.88;;;;;;;;;;8264192;28;20042;-89
2022/11/19 12:17:29;;;;;;;21.60;10.13;;;;;;;;;;8253932;28;20118;-90
2022/11/19 12:21:46;;;;;;;12.50;6.28;;;;;;;;;;8272891;28;20058;-89
2022/11/19 12:26:00;;;;;;;12.52;6.93;;;;;;;;;;8252869;28;20046;-89
2022/11/19 12:30:14;;;;;;;12.18;7.13;;;;;;;;;;8276875;28;20051;-89
2022/11/19 12:34:45;;;;;;;15.95;8.25;;;;;;;;;;8272906;28;20060;-91
2022/11/19 12:38:59;;;;;;;8.90;5.57;;;;;;;;;;8263564;28;20486;-91
2022/11/19 12:43:15;;;;;;;14.98;7.35;;;;;;;;;;8277527;28;20046;-90
2022/11/19 12:47:52;;;;;;;13.00;6.30;;;;;;;;;;8279127;28;20043;-91
2022/11/19 12:52:03;;;;;;;21.50;8.57;;;;;;;;;;8269196;28;20066;-89
2022/11/19 12:56:19;;;;;;;4.97;3.17;;;;;;;;;;8253851;28;20100;-90
2022/11/19 13:04:55;;;;;;;11.38;6.25;;;;;;;;;;8258684;28;20388;-89
2022/11/19 13:09:10;;;;;;;12.27;6.05;;;;;;;;;;8270354;28;20066;-89
2022/11/19 13:13:26;;;;;;;8.95;4.15;;;;;;;;;;8269648;28;20050;-90
2022/11/19 13:17:32;;;;;;;14.35;6.68;;;;;;;;;;8278157;28;20089;-89
2022/11/19 13:22:22;;;;;;;11.82;6.10;;;;;;;;;;8276129;28;20050;-88
2022/11/19 13:26:47;;;;;;;29.77;12.63;;;;;;;;;;8286597;28;20602;-89
2022/11/19 13:30:53;;;;;;;18.40;8.52;;;;;;;;;;8262520;28;20081;-89
2022/11/19 13:35:16;;;;;;;17.80;9.27;;;;;;;;;;8297475;28;20030;-94
2022/11/19 13:39:27;;;;;;;14.70;6.97;;;;;;;;;;8285109;28;20049;-90
2022/11/19 13:47:56;;;;;;;18.08;10.45;;;;;;;;;;8289729;28;20042;-87
2022/11/19 13:52:06;;;;;;;16.85;8.02;;;;;;;;;;8287380;28;20103;-94
2022/11/19 13:56:16;;;;;;;26.75;11.38;;;;;;;;;;8267458;28;20097;-93
2022/11/19 14:00:24;;;;;;;71.47;30.08;;;;;;;;;;8277847;28;20149;-94
2022/11/19 14:04:52;;;;;;;37.97;15.60;;;;;;;;;;8246483;28;20074;-89
2022/11/19 14:09:09;;;;;;;19.92;10.77;;;;;;;;;;8255875;28;20057;-92
2022/11/19 14:13:41;;;;;;;39.85;15.45;;;;;;;;;;8268673;28;20137;-92
2022/11/19 14:27:14;;;;;;;34.92;13.93;;;;;;;;;;8258247;28;20053;-91
2022/11/19 14:31:21;;;;;;;16.38;7.88;;;;;;;;;;8242643;28;20054;-90
2022/11/19 14:35:35;;;;;;;38.97;19.23;;;;;;;;;;8265896;28;20053;-96
2022/11/19 14:39:42;;;;;;;100.00;38.83;;;;;;;;;;8246624;28;20053;-88
2022/11/19 14:44:11;;;;;;;13.43;6.40;;;;;;;;;;8264617;28;20057;-89
2022/11/19 14:48:15;;;;;;;15.30;8.38;;;;;;;;;;8262501;28;20053;-91
2022/11/19 14:52:21;;;;;;;23.40;9.68;;;;;;;;;;8268118;28;20038;-96
2022/11/19 14:56:24;;;;;;;14.10;6.72;;;;;;;;;;8283626;28;20050;-96
2022/11/19 15:00:33;;;;;;;20.10;9.48;;;;;;;;;;8252434;28;20050;-93
2022/11/19 15:04:42;;;;;;;35.42;11.18;;;;;;;;;;8264882;28;20050;-90
2022/11/19 15:08:51;;;;;;;64.45;23.50;;;;;;;;;;8262415;28;20057;-89
2022/11/19 15:13:16;;;;;;;45.90;15.45;;;;;;;;;;8274899;28;20061;-94
2022/11/19 15:17:21;;;;;;;42.22;18.77;;;;;;;;;;8258136;28;20050;-89
2022/11/19 15:22:08;;;;;;;143.00;33.80;;;;;;;;;;8265729;28;20046;-89
2022/11/19 15:26:19;;;;;;;217.68;52.90;;;;;;;;;;8254297;28;20047;-90
2022/11/19 15:30:27;;;;;;;106.13;28.83;;;;;;;;;;8259115;28;20051;-91
2022/11/19 15:34:52;;;;;;;22.52;10.68;;;;;;;;;;8271324;28;20807;-90
2022/11/19 15:39:01;;;;;;;124.10;46.83;;;;;;;;;;8262979;28;20056;-90
2022/11/19 15:43:25;;;;;;;20.20;9.80;;;;;;;;;;8277661;28;20053;-86
2022/11/19 15:47:37;;;;;;;19.65;6.63;;;;;;;;;;8266266;28;20177;-88
2022/11/19 15:52:08;;;;;;;30.00;14.05;;;;;;;;;;8249360;28;20069;-85
2022/11/19 15:56:14;;;;;;;23.75;10.57;;;;;;;;;;8256093;28;20127;-84
2022/11/19 16:00:22;;;;;;;30.02;15.50;;;;;;;;;;8278517;28;20049;-88
2022/11/19 16:04:32;;;;;;;28.40;14.57;;;;;;;;;;8264588;28;20043;-83
2022/11/19 16:08:35;;;;;;;47.97;15.85;;;;;;;;;;8266647;28;20057;-85
2022/11/19 16:17:43;;;;;;;62.55;24.67;;;;;;;;;;8250601;28;20046;-86
2022/11/19 16:22:30;;;;;;;191.60;47.45;;;;;;;;;;8245639;28;20130;-86
2022/11/19 16:26:44;;;;;;;42.63;14.48;;;;;;;;;;8254963;28;20053;-84
2022/11/19 16:31:03;;;;;;;109.00;31.63;;;;;;;;;;8269749;28;20077;-84
2022/11/19 16:35:35;;;;;;;104.00;39.65;;;;;;;;;;8260639;28;20526;-87
2022/11/19 16:39:41;;;;;;;78.05;28.92;;;;;;;;;;8260380;28;20106;-88
2022/11/19 16:43:47;;;;;;;89.65;30.13;;;;;;;;;;8246201;28;20129;-86
2022/11/19 16:47:56;;;;;;;170.25;45.78;;;;;;;;;;8256444;28;20046;-88
2022/11/19 16:52:03;;;;;;;38.50;19.70;;;;;;;;;;8248756;28;20046;-88
2022/11/19 16:56:13;;;;;;;44.92;21.63;;;;;;;;;;8251150;28;20445;-86
2022/11/19 17:00:21;;;;;;;42.20;17.60;;;;;;;;;;8237544;28;20425;-87
2022/11/19 17:04:32;;;;;;;35.70;15.52;;;;;;;;;;8258667;28;20055;-90
2022/11/19 17:08:38;;;;;;;36.13;16.13;;;;;;;;;;8232505;28;20062;-88
2022/11/19 17:12:56;;;;;;;23.30;10.57;;;;;;;;;;8238984;28;20410;-86
2022/11/19 17:17:02;;;;;;;24.27;12.93;;;;;;;;;;8261788;28;20154;-87
2022/11/19 17:21:20;;;;;;;21.35;10.77;;;;;;;;;;8255839;28;20054;-85
2022/11/19 17:25:24;;;;;;;19.92;11.70;;;;;;;;;;8239456;28;20518;-86
2022/11/19 17:29:29;;;;;;;33.20;13.10;;;;;;;;;;8243608;28;20058;-87
2022/11/19 17:33:32;;;;;;;42.40;19.25;;;;;;;;;;8254937;28;20068;-86
2022/11/19 17:37:39;;;;;;;45.10;16.70;;;;;;;;;;8251131;28;20054;-84
2022/11/19 17:46:19;;;;;;;27.00;12.88;;;;;;;;;;8247736;28;20066;-85
2022/11/19 17:50:22;;;;;;;46.85;18.23;;;;;;;;;;8261193;28;20050;-85
2022/11/19 17:54:36;;;;;;;47.80;23.60;;;;;;;;;;8261951;28;20081;-89
2022/11/19 17:58:47;;;;;;;59.40;25.75;;;;;;;;;;8245305;28;20517;-88
2022/11/19 18:02:55;;;;;;;101.72;40.20;;;;;;;;;;8265950;28;20649;-88
2022/11/19 18:07:00;;;;;;;98.30;36.35;;;;;;;;;;8257623;28;20410;-88
2022/11/19 18:11:14;;;;;;;109.47;34.00;;;;;;;;;;8259379;28;20410;-85
2022/11/19 18:15:20;;;;;;;132.45;47.72;;;;;;;;;;8239494;28;20049;-86
2022/11/19 18:19:30;;;;;;;61.65;26.58;;;;;;;;;;8252640;28;20046;-86
2022/11/19 18:23:34;;;;;;;50.25;20.02;;;;;;;;;;8257523;28;20043;-88
2022/11/19 18:27:50;;;;;;;40.20;14.35;;;;;;;;;;8251295;28;20830;-86
2022/11/19 18:32:16;;;;;;;44.75;20.15;;;;;;;;;;8256104;28;20487;-85
2022/11/19 18:36:21;;;;;;;46.13;18.45;;;;;;;;;;8250699;28;20475;-86
2022/11/19 18:40:24;;;;;;;34.97;16.85;;;;;;;;;;8249181;28;20049;-85
2022/11/19 18:44:37;;;;;;;48.55;19.98;;;;;;;;;;8243839;28;20055;-85
2022/11/19 18:48:41;;;;;;;45.15;21.73;;;;;;;;;;8253054;28;20062;-87
2022/11/19 18:52:44;;;;;;;34.28;15.88;;;;;;;;;;8250126;28;20043;-83
2022/11/19 18:56:50;;;;;;;53.78;24.13;;;;;;;;;;8259049;28;20557;-90
2022/11/19 19:01:16;;;;;;;58.88;25.02;;;;;;;;;;8253998;28;20042;-86
2022/11/19 19:05:28;;;;;;;46.58;20.17;;;;;;;;;;8253828;28;20061;-85
2022/11/19 19:09:31;;;;;;;38.45;18.52;;;;;;;;;;8260895;28;20485;-88
2022/11/19 19:13:38;;;;;;;48.30;25.60;;;;;;;;;;8259726;28;20089;-85
2022/11/19 19:18:30;;;;;;;78.30;29.30;;;;;;;;;;8260704;28;20094;-89
2022/11/19 19:22:49;;;;;;;42.67;22.75;;;;;;;;;;8259159;28;20050;-88
2022/11/19 19:31:57;;;;;;;63.80;28.30;;;;;;;;;;8256659;28;20149;-87
2022/11/19 19:36:15;;;;;;;50.42;20.52;;;;;;;;;;8258853;28;20399;-84
2022/11/19 19:40:18;;;;;;;58.30;26.23;;;;;;;;;;8260349;28;20050;-86
2022/11/19 19:44:21;;;;;;;57.38;23.98;;;;;;;;;;8260662;28;20050;-84
2022/11/19 19:48:23;;;;;;;84.57;33.65;;;;;;;;;;8262183;28;20043;-85
2022/11/19 19:52:31;;;;;;;79.38;38.85;;;;;;;;;;8258895;28;20053;-87
2022/11/19 19:56:34;;;;;;;75.15;31.55;;;;;;;;;;8254475;28;20418;-84
2022/11/19 20:00:37;;;;;;;105.05;39.28;;;;;;;;;;8259679;28;20051;-84
2022/11/19 20:04:40;;;;;;;83.20;33.70;;;;;;;;;;8258370;28;20047;-85
2022/11/19 20:08:46;;;;;;;108.93;35.67;;;;;;;;;;8253087;28;20042;-84
2022/11/19 20:17:20;;;;;;;99.40;39.90;;;;;;;;;;8222475;28;20052;-85
2022/11/19 20:21:25;;;;;;;42.67;19.55;;;;;;;;;;8286249;28;20039;-84
2022/11/19 20:25:29;;;;;;;65.40;22.45;;;;;;;;;;8291125;28;20078;-83
2022/11/19 20:29:32;;;;;;;26.17;13.20;;;;;;;;;;8264609;28;20050;-83
2022/11/19 20:33:36;;;;;;;113.35;39.90;;;;;;;;;;8269424;28;20085;-84
2022/11/19 20:37:38;;;;;;;55.75;23.67;;;;;;;;;;8268641;28;20132;-83
2022/11/19 20:46:08;;;;;;;68.10;28.30;;;;;;;;;;8254749;28;20038;-83
2022/11/19 20:50:11;;;;;;;59.83;24.88;;;;;;;;;;8268686;28;20081;-83
2022/11/19 20:54:14;;;;;;;73.88;30.20;;;;;;;;;;8268085;28;20517;-83
2022/11/19 20:58:18;;;;;;;70.05;30.00;;;;;;;;;;8268147;28;20406;-83
2022/11/19 21:02:21;;;;;;;89.10;33.97;;;;;;;;;;8268519;28;20129;-84
2022/11/19 21:06:25;;;;;;;49.92;24.50;;;;;;;;;;8267636;28;20097;-83
2022/11/19 21:10:28;;;;;;;59.67;25.35;;;;;;;;;;8267619;28;20050;-84
2022/11/19 21:14:33;;;;;;;39.97;16.98;;;;;;;;;;8267366;28;20053;-83
2022/11/19 21:18:38;;;;;;;61.22;24.95;;;;;;;;;;8267294;28;20054;-83
2022/11/19 21:22:41;;;;;;;60.70;26.70;;;;;;;;;;8267173;28;20557;-83
2022/11/19 21:26:44;;;;;;;69.07;27.90;;;;;;;;;;8266952;28;20502;-84
2022/11/19 21:30:52;;;;;;;74.40;29.42;;;;;;;;;;8267119;28;20059;-83
2022/11/19 21:34:55;;;;;;;41.25;19.42;;;;;;;;;;8266525;28;20054;-84
2022/11/19 21:38:58;;;;;;;65.13;22.15;;;;;;;;;;8267154;28;20050;-83
2022/11/19 21:43:00;;;;;;;63.20;27.55;;;;;;;;;;8266597;28;20050;-83
2022/11/19 21:47:04;;;;;;;230.73;65.85;;;;;;;;;;8266445;28;20399;-83
2022/11/19 21:51:08;;;;;;;229.65;56.38;;;;;;;;;;8266306;28;20061;-83
2022/11/19 21:55:11;;;;;;;162.27;45.22;;;;;;;;;;8266237;28;20725;-83
2022/11/19 21:59:14;;;;;;;156.38;45.20;;;;;;;;;;8265811;28;20053;-84
2022/11/19 22:03:17;;;;;;;121.70;38.67;;;;;;;;;;8265948;28;20048;-83
2022/11/19 22:07:20;;;;;;;73.25;29.23;;;;;;;;;;8265762;28;20097;-83
2022/11/19 22:11:28;;;;;;;57.53;22.63;;;;;;;;;;8266095;28;20461;-83
2022/11/19 22:15:31;;;;;;;39.75;18.45;;;;;;;;;;8265724;28;20042;-82
2022/11/19 22:19:35;;;;;;;68.40;27.13;;;;;;;;;;8265272;28;20480;-83
2022/11/19 22:23:38;;;;;;;50.88;22.95;;;;;;;;;;8265470;28;20050;-83
2022/11/19 22:27:41;;;;;;;60.20;22.00;;;;;;;;;;8265889;28;20406;-83
2022/11/19 22:31:44;;;;;;;49.58;20.52;;;;;;;;;;8265012;28;20054;-83
2022/11/19 22:35:48;;;;;;;37.85;19.35;;;;;;;;;;8265190;28;20054;-82
2022/11/19 22:39:50;;;;;;;42.03;20.02;;;;;;;;;;8265546;28;20509;-83
2022/11/19 22:43:54;;;;;;;49.42;20.10;;;;;;;;;;8250720;28;20042;-82
2022/11/19 22:47:58;;;;;;;42.92;18.63;;;;;;;;;;8266294;28;20471;-84
2022/11/19 22:52:04;;;;;;;34.42;12.63;;;;;;;;;;8264819;28;20053;-83
2022/11/19 22:56:09;;;;;;;28.30;13.77;;;;;;;;;;8264614;28;20457;-84
2022/11/19 23:00:13;;;;;;;43.67;19.25;;;;;;;;;;8264504;28;20053;-84
2022/11/19 23:04:17;;;;;;;36.70;20.30;;;;;;;;;;8264974;28;20479;-83
2022/11/19 23:08:21;;;;;;;41.33;19.40;;;;;;;;;;8264758;28;20532;-84
2022/11/19 23:16:44;;;;;;;34.13;14.73;;;;;;;;;;8264334;28;20061;-83
2022/11/19 23:20:47;;;;;;;40.17;18.45;;;;;;;;;;8264144;28;20049;-84
2022/11/19 23:24:51;;;;;;;42.15;19.42;;;;;;;;;;8263967;28;20061;-85
2022/11/19 23:28:54;;;;;;;40.78;19.60;;;;;;;;;;8264001;28;20125;-84
2022/11/19 23:32:56;;;;;;;38.17;15.73;;;;;;;;;;8263254;28;20088;-83
2022/11/19 23:36:59;;;;;;;33.53;14.25;;;;;;;;;;8261663;28;20050;-83
2022/11/19 23:41:04;;;;;;;42.13;16.73;;;;;;;;;;8263474;28;20046;-86
2022/11/19 23:45:08;;;;;;;39.15;16.35;;;;;;;;;;8262744;28;20498;-84
2022/11/19 23:49:11;;;;;;;27.88;12.82;;;;;;;;;;8258757;28;20688;-84
2022/11/19 23:53:14;;;;;;;17.55;7.85;;;;;;;;;;8261690;28;20034;-85
2022/11/19 23:57:18;;;;;;;28.60;13.77;;;;;;;;;;8267452;28;20053;-84
